Time;durP1;ratioP1;P1;durP2;ratioP2;P2;SDS_P1;SDS_P2;PMS_P1;PMS_P2;Temp;Humidity;BMP_temperature;BMP_pressure;BME280_temperature;BME280_humidity;BME280_pressure;Samples;Min_cycle;Max_cycle;Signal;HPM_P1;HPM_P2
2021/12/08 00:00:47;;;;;;;12.18;6.43;;;3.90;99.90;;;;;;4984510;28;20189;-72
2021/12/08 00:03:14;;;;;;;;;;;3.80;99.90;;;;;;5003008;28;20512;-72
2021/12/08 00:05:41;;;;;;;11.87;5.80;;;3.80;99.90;;;;;;4986329;28;19929;-72
2021/12/08 00:08:08;;;;;;;;;;;3.80;99.90;;;;;;4988173;28;20050;-73
2021/12/08 00:13:05;;;;;;;11.88;6.05;;;3.80;99.90;;;;;;4985458;28;20203;-73
2021/12/08 00:15:32;;;;;;;14.23;5.97;;;3.80;99.90;;;;;;4981465;28;20098;-73
2021/12/08 00:17:59;;;;;;;10.55;5.82;;;3.90;99.90;;;;;;4987115;28;20447;-72
2021/12/08 00:20:28;;;;;;;10.68;5.80;;;3.80;99.90;;;;;;4987834;28;20070;-72
2021/12/08 00:22:54;;;;;;;12.15;5.57;;;3.90;99.90;;;;;;4987788;28;20758;-73
2021/12/08 00:25:20;;;;;;;12.15;5.57;;;3.80;99.90;;;;;;4987529;28;20042;-73
2021/12/08 00:27:45;;;;;;;10.73;5.45;;;3.90;99.90;;;;;;4984135;28;20054;-73
2021/12/08 00:30:11;;;;;;;11.73;5.53;;;3.90;99.90;;;;;;4986805;28;20050;-73
2021/12/08 00:32:37;;;;;;;11.75;5.65;;;3.90;99.90;;;;;;4984166;28;20047;-73
2021/12/08 00:35:05;;;;;;;9.63;5.00;;;3.90;99.90;;;;;;4986524;28;20392;-73
2021/12/08 00:37:31;;;;;;;11.93;4.93;;;3.90;99.90;;;;;;4984437;28;20046;-72
2021/12/08 00:39:57;;;;;;;9.60;4.90;;;3.90;99.90;;;;;;4982331;28;20066;-72
2021/12/08 00:42:23;;;;;;;9.43;4.78;;;3.90;99.90;;;;;;4999931;28;20081;-73
2021/12/08 00:44:49;;;;;;;13.20;5.03;;;3.90;99.90;;;;;;4985634;28;20088;-73
2021/12/08 00:47:15;;;;;;;11.63;4.80;;;3.90;99.90;;;;;;4984757;28;20667;-73
2021/12/08 00:49:40;;;;;;;12.20;5.18;;;3.90;99.90;;;;;;4984967;28;20050;-73
2021/12/08 00:52:07;;;;;;;11.02;5.03;;;3.90;99.90;;;;;;4987154;28;20378;-72
2021/12/08 00:54:34;;;;;;;13.23;5.00;;;3.90;99.90;;;;;;4987373;28;20170;-73
2021/12/08 00:57:00;;;;;;;15.00;5.57;;;3.90;99.90;;;;;;4985856;28;20498;-73
2021/12/08 00:59:26;;;;;;;12.53;5.30;;;3.90;99.90;;;;;;4983700;28;20046;-73
2021/12/08 01:01:52;;;;;;;12.38;4.80;;;3.90;99.90;;;;;;4984692;28;20100;-73
2021/12/08 01:04:18;;;;;;;9.45;5.18;;;3.90;99.90;;;;;;4985148;28;20096;-73
2021/12/08 01:06:44;;;;;;;9.68;4.72;;;3.90;99.90;;;;;;4983345;28;20074;-73
2021/12/08 01:09:11;;;;;;;10.23;4.90;;;3.90;99.90;;;;;;4984016;28;20065;-72
2021/12/08 01:11:38;;;;;;;12.93;5.20;;;3.80;99.90;;;;;;4984379;28;20046;-73
2021/12/08 01:14:07;;;;;;;12.57;5.35;;;3.90;99.90;;;;;;4984083;28;20134;-73
2021/12/08 01:16:33;;;;;;;11.07;5.28;;;3.90;99.90;;;;;;4990438;28;20526;-73
2021/12/08 01:18:58;;;;;;;9.18;5.18;;;3.90;99.90;;;;;;4993030;28;20085;-73
2021/12/08 01:21:24;;;;;;;10.77;5.57;;;3.80;99.90;;;;;;4988559;28;20074;-73
2021/12/08 01:23:50;;;;;;;13.15;5.35;;;3.90;99.90;;;;;;4992921;28;20044;-72
2021/12/08 01:26:16;;;;;;;7.55;4.95;;;3.80;99.90;;;;;;4990178;28;20490;-72
2021/12/08 01:28:42;;;;;;;12.90;5.10;;;3.90;99.90;;;;;;4987428;28;20053;-73
2021/12/08 01:31:07;;;;;;;10.30;5.13;;;3.80;99.90;;;;;;4986063;28;20090;-73
2021/12/08 01:33:35;;;;;;;11.13;5.03;;;3.80;99.90;;;;;;4988551;28;20050;-73
2021/12/08 01:36:04;;;;;;;12.75;5.40;;;3.80;99.90;;;;;;4980738;28;20056;-73
2021/12/08 01:38:30;;;;;;;10.65;4.90;;;3.80;99.90;;;;;;4988152;28;20053;-72
2021/12/08 01:40:56;;;;;;;11.63;5.63;;;3.80;99.90;;;;;;4989542;28;20066;-73
2021/12/08 01:43:40;;;;;;;11.88;4.82;;;3.80;99.90;;;;;;4990422;28;20084;-73
2021/12/08 01:46:08;;;;;;;13.85;5.80;;;3.80;99.90;;;;;;4987269;28;20104;-73
2021/12/08 01:48:37;;;;;;;9.23;5.10;;;3.80;99.90;;;;;;4989424;28;20130;-73
2021/12/08 01:51:09;;;;;;;8.73;4.88;;;3.80;99.90;;;;;;4989453;28;20497;-72
2021/12/08 01:53:35;;;;;;;10.27;4.78;;;3.80;99.90;;;;;;4989189;28;20457;-73
2021/12/08 01:56:01;;;;;;;9.52;4.72;;;3.80;99.90;;;;;;4988935;28;20073;-73
2021/12/08 01:58:27;;;;;;;7.60;4.70;;;3.80;99.90;;;;;;4987531;28;20061;-73
2021/12/08 02:00:58;;;;;;;8.70;4.70;;;3.80;99.90;;;;;;4988963;28;20046;-73
2021/12/08 02:03:25;;;;;;;10.15;4.70;;;3.80;99.90;;;;;;4986606;28;21697;-73
2021/12/08 02:05:51;;;;;;;10.57;4.77;;;3.80;99.90;;;;;;4987322;28;20069;-73
2021/12/08 02:08:17;;;;;;;8.60;4.63;;;3.80;99.90;;;;;;4990119;28;20049;-72
2021/12/08 02:10:44;;;;;;;12.40;4.90;;;3.80;99.90;;;;;;4990330;28;20046;-73
2021/12/08 02:13:10;;;;;;;8.23;4.53;;;3.80;99.90;;;;;;4987739;28;20137;-73
2021/12/08 02:15:38;;;;;;;9.30;4.78;;;3.80;99.90;;;;;;4987376;28;20066;-72
2021/12/08 02:18:06;;;;;;;9.60;4.65;;;3.80;99.90;;;;;;4990502;28;20112;-73
2021/12/08 02:20:32;;;;;;;10.15;4.65;;;3.80;99.90;;;;;;4992288;28;20130;-73
2021/12/08 02:22:58;;;;;;;8.73;4.05;;;3.80;99.90;;;;;;4986193;28;20112;-73
2021/12/08 02:25:28;;;;;;;10.00;4.40;;;3.80;99.90;;;;;;4985661;28;20052;-73
2021/12/08 02:27:57;;;;;;;9.52;3.85;;;3.80;99.90;;;;;;4987419;28;20218;-73
2021/12/08 02:30:38;;;;;;;13.07;4.90;;;3.80;99.90;;;;;;4988278;28;20089;-73
2021/12/08 02:47:13;;;;;;;7.95;4.93;;;3.80;99.90;;;;;;4985144;28;20826;-72
2021/12/08 02:49:39;;;;;;;12.60;5.00;;;3.90;99.90;;;;;;4987533;28;20129;-72
2021/12/08 02:52:08;;;;;;;7.03;4.80;;;3.90;99.90;;;;;;4989010;28;20080;-72
2021/12/08 02:54:41;;;;;;;9.93;5.20;;;3.90;99.90;;;;;;4980290;28;20070;-73
2021/12/08 02:57:09;;;;;;;14.00;5.80;;;3.90;99.90;;;;;;4984258;28;20605;-72
2021/12/08 02:59:35;;;;;;;9.18;5.75;;;3.90;99.90;;;;;;4987614;28;20049;-72
2021/12/08 03:02:01;;;;;;;10.77;5.33;;;4.00;99.90;;;;;;4988192;28;20049;-73
2021/12/08 03:04:27;;;;;;;9.95;5.38;;;4.00;99.90;;;;;;4989070;28;20054;-73
2021/12/08 03:06:54;;;;;;;8.93;5.53;;;4.00;99.90;;;;;;4983641;28;20094;-72
2021/12/08 03:09:19;;;;;;;10.68;5.32;;;4.00;99.90;;;;;;4985937;28;20108;-72
2021/12/08 03:11:48;;;;;;;9.30;5.57;;;4.00;99.90;;;;;;4986734;28;20474;-72
2021/12/08 03:14:16;;;;;;;8.55;5.40;;;4.00;99.90;;;;;;4988350;28;20474;-73
2021/12/08 03:16:47;;;;;;;8.80;5.63;;;4.00;99.90;;;;;;4985445;28;20057;-73
2021/12/08 03:19:12;;;;;;;8.18;5.97;;;4.00;99.90;;;;;;4987261;28;20034;-72
2021/12/08 03:21:38;;;;;;;9.35;6.00;;;4.10;99.90;;;;;;4986656;28;20048;-72
2021/12/08 03:29:52;;;;;;;10.57;6.53;;;4.10;99.90;;;;;;4931993;28;20054;-73
2021/12/08 03:32:36;;;;;;;12.02;6.90;;;4.20;99.90;;;;;;4986983;28;20094;-73
2021/12/08 03:35:05;;;;;;;10.85;6.70;;;4.20;99.90;;;;;;4982137;28;20042;-72
2021/12/08 03:37:34;;;;;;;9.20;7.35;;;4.20;99.90;;;;;;4986027;28;20077;-72
2021/12/08 03:40:05;;;;;;;11.65;7.03;;;4.20;99.90;;;;;;4989106;28;20052;-72
2021/12/08 03:42:35;;;;;;;10.77;7.38;;;4.20;99.90;;;;;;4986193;28;20486;-73
2021/12/08 03:45:04;;;;;;;10.70;7.55;;;4.20;99.90;;;;;;4991669;28;20705;-73
2021/12/08 03:47:30;;;;;;;11.82;8.20;;;4.30;99.90;;;;;;4979415;28;20054;-73
2021/12/08 03:50:01;;;;;;;10.27;8.15;;;4.30;99.90;;;;;;4985521;28;20553;-73
2021/12/08 03:52:27;;;;;;;12.02;8.43;;;4.30;99.90;;;;;;4986514;28;20046;-73
2021/12/08 03:54:53;;;;;;;12.32;8.80;;;4.30;99.90;;;;;;4986597;28;20308;-72
2021/12/08 03:57:19;;;;;;;12.38;8.68;;;4.40;99.90;;;;;;4985104;28;20101;-73
2021/12/08 03:59:44;;;;;;;12.75;8.48;;;4.30;99.90;;;;;;4987403;28;20046;-73
2021/12/08 04:02:10;;;;;;;12.00;8.63;;;4.30;99.90;;;;;;4986004;28;20053;-73
2021/12/08 04:04:44;;;;;;;11.55;9.00;;;4.40;99.90;;;;;;4985748;28;20038;-72
2021/12/08 04:07:12;;;;;;;13.02;8.80;;;4.40;99.90;;;;;;4976850;28;20062;-73
2021/12/08 04:09:41;;;;;;;12.00;8.85;;;4.40;99.90;;;;;;4985368;28;20122;-72
2021/12/08 04:12:12;;;;;;;11.70;9.68;;;4.40;99.90;;;;;;4983919;28;20142;-73
2021/12/08 04:15:03;;;;;;;12.68;9.95;;;4.40;99.90;;;;;;4985676;28;20052;-73
2021/12/08 04:17:34;;;;;;;19.17;11.23;;;4.40;99.90;;;;;;4986098;28;20054;-73
2021/12/08 04:20:07;;;;;;;14.15;10.38;;;4.40;99.90;;;;;;4987028;28;20063;-72
2021/12/08 04:22:37;;;;;;;14.63;11.00;;;4.40;99.90;;;;;;4985055;28;20105;-73
2021/12/08 04:25:10;;;;;;;13.13;10.80;;;4.40;99.90;;;;;;4984766;28;20056;-73
2021/12/08 04:27:38;;;;;;;15.13;11.48;;;4.40;99.90;;;;;;4985700;28;20061;-72
2021/12/08 04:30:27;;;;;;;13.38;11.25;;;4.50;99.90;;;;;;4985699;28;20038;-73
2021/12/08 04:32:53;;;;;;;15.25;12.30;;;4.50;99.90;;;;;;4983984;28;20898;-72
2021/12/08 04:35:21;;;;;;;14.63;11.95;;;4.50;99.90;;;;;;4986429;28;20047;-72
2021/12/08 04:37:51;;;;;;;15.50;12.30;;;4.50;99.90;;;;;;4987065;28;20153;-73
2021/12/08 04:40:51;;;;;;;17.95;11.80;;;4.50;99.90;;;;;;4985529;28;20046;-72
2021/12/08 04:43:25;;;;;;;17.63;12.07;;;4.50;99.90;;;;;;4985081;28;20057;-73
2021/12/08 04:46:27;;;;;;;16.65;11.90;;;4.50;99.90;;;;;;4985358;28;20054;-73
2021/12/08 04:49:14;;;;;;;17.65;12.00;;;4.60;99.90;;;;;;4985900;28;20052;-73
2021/12/08 04:52:00;;;;;;;16.50;11.77;;;4.50;99.90;;;;;;4987493;28;20059;-72
2021/12/08 05:03:24;;;;;;;13.00;10.70;;;4.60;99.90;;;;;;4979580;28;20486;-72
2021/12/08 05:06:18;;;;;;;15.85;11.52;;;4.60;99.90;;;;;;4991139;28;20090;-73
2021/12/08 05:08:47;;;;;;;12.75;10.70;;;4.70;99.90;;;;;;4989182;28;20077;-73
2021/12/08 05:11:24;;;;;;;12.68;11.18;;;4.70;99.90;;;;;;4991725;28;20049;-71
2021/12/08 05:13:56;;;;;;;13.63;11.02;;;4.70;99.90;;;;;;4985989;28;20678;-73
2021/12/08 05:16:23;;;;;;;15.63;10.80;;;4.70;99.90;;;;;;4989347;28;20089;-73
2021/12/08 05:18:50;;;;;;;;;;;4.70;99.90;;;;;;4988876;28;20058;-73
2021/12/08 05:21:25;;;;;;;14.23;10.70;;;4.70;99.90;;;;;;4989563;28;19929;-72
2021/12/08 05:23:54;;;;;;;16.75;11.25;;;4.70;99.90;;;;;;4985598;28;20042;-73
2021/12/08 05:26:32;;;;;;;15.57;10.77;;;4.80;99.90;;;;;;4989651;28;20071;-73
2021/12/08 05:29:04;;;;;;;15.18;10.82;;;4.80;99.90;;;;;;4987640;28;20043;-73
2021/12/08 05:31:31;;;;;;;12.80;10.48;;;4.80;99.90;;;;;;4986087;28;20046;-73
2021/12/08 05:33:58;;;;;;;13.15;10.38;;;4.80;99.90;;;;;;4980783;28;20070;-73
2021/12/08 05:36:24;;;;;;;13.83;10.57;;;4.80;99.90;;;;;;4989106;28;20465;-73
2021/12/08 05:38:52;;;;;;;16.15;10.73;;;4.80;99.90;;;;;;4989080;28;20038;-73
2021/12/08 05:41:22;;;;;;;14.32;9.80;;;4.80;99.90;;;;;;4988528;28;20133;-73
2021/12/08 05:43:49;;;;;;;13.30;10.27;;;4.80;99.90;;;;;;4987337;28;20042;-72
2021/12/08 05:46:17;;;;;;;12.87;10.17;;;4.80;99.90;;;;;;4987127;28;20039;-73
2021/12/08 05:48:46;;;;;;;12.52;9.75;;;4.80;99.90;;;;;;4988358;28;20787;-73
2021/12/08 05:51:16;;;;;;;12.93;9.60;;;4.80;99.90;;;;;;4989011;28;20053;-73
2021/12/08 05:53:46;;;;;;;11.55;10.30;;;4.80;99.90;;;;;;4988531;28;20081;-73
2021/12/08 05:56:12;;;;;;;13.75;10.10;;;4.80;99.90;;;;;;4989378;28;20585;-73
2021/12/08 05:58:39;;;;;;;14.23;10.18;;;4.80;99.90;;;;;;4985743;28;20129;-72
2021/12/08 06:01:21;;;;;;;15.07;9.65;;;4.80;99.90;;;;;;4987404;28;20410;-72
2021/12/08 06:03:49;;;;;;;13.52;9.50;;;4.80;99.90;;;;;;4977610;28;20042;-73
2021/12/08 06:06:17;;;;;;;13.27;9.55;;;4.80;99.90;;;;;;4989161;28;20050;-73
2021/12/08 06:08:43;;;;;;;13.18;9.63;;;4.80;99.90;;;;;;4987587;28;20053;-72
2021/12/08 06:11:10;;;;;;;13.20;10.07;;;4.80;99.90;;;;;;4987681;28;20141;-73
2021/12/08 06:13:37;;;;;;;12.82;9.77;;;4.80;99.90;;;;;;4989324;28;20045;-72
2021/12/08 06:16:05;;;;;;;11.88;9.73;;;4.80;99.90;;;;;;4988554;28;20140;-73
2021/12/08 06:18:38;;;;;;;14.02;10.23;;;4.70;99.90;;;;;;4987432;28;20039;-73
2021/12/08 06:21:07;;;;;;;13.43;9.73;;;4.80;99.90;;;;;;4985785;28;20050;-73
2021/12/08 06:23:34;;;;;;;16.92;9.50;;;4.80;99.90;;;;;;4988587;28;20051;-73
2021/12/08 06:26:00;;;;;;;14.30;9.85;;;4.80;99.90;;;;;;4988818;28;20038;-73
2021/12/08 06:28:26;;;;;;;12.48;9.38;;;4.80;99.90;;;;;;4988119;28;20044;-74
2021/12/08 06:30:52;;;;;;;13.20;9.45;;;4.80;99.90;;;;;;4987225;28;20049;-72
2021/12/08 06:33:20;;;;;;;13.85;9.30;;;4.80;99.90;;;;;;4985597;28;20038;-72
2021/12/08 06:35:51;;;;;;;17.10;11.40;;;4.80;99.90;;;;;;4983304;28;20053;-72
2021/12/08 06:38:18;;;;;;;18.25;11.50;;;4.80;99.90;;;;;;4985231;28;20042;-72
2021/12/08 06:40:58;;;;;;;14.02;10.43;;;4.80;99.90;;;;;;4988705;28;20061;-72
2021/12/08 06:43:29;;;;;;;18.83;12.65;;;4.80;99.90;;;;;;4985873;28;20039;-72
2021/12/08 06:45:57;;;;;;;18.65;13.55;;;4.80;99.90;;;;;;4987106;28;20050;-72
2021/12/08 06:48:28;;;;;;;21.15;13.43;;;4.90;99.90;;;;;;4986852;28;20065;-72
2021/12/08 06:51:15;;;;;;;14.73;11.80;;;4.90;99.90;;;;;;4988369;28;20050;-70
2021/12/08 06:53:44;;;;;;;14.65;9.73;;;4.90;99.90;;;;;;4984955;28;20046;-72
2021/12/08 06:56:33;;;;;;;14.57;10.15;;;4.90;99.90;;;;;;4988219;28;20086;-72
2021/12/08 06:59:08;;;;;;;15.25;10.32;;;4.90;99.90;;;;;;4981361;28;20085;-71
2021/12/08 07:01:49;;;;;;;15.27;10.32;;;4.90;99.90;;;;;;4984788;28;20081;-72
2021/12/08 07:05:24;;;;;;;17.13;10.15;;;5.00;99.90;;;;;;4986387;28;20482;-72
2021/12/08 07:07:42;;;;;;;;;;;5.00;99.90;;;;;;4985214;28;20046;-72
2021/12/08 07:10:22;;;;;;;13.32;8.73;;;5.00;99.90;;;;;;4985542;28;20013;-72
2021/12/08 07:12:53;;;;;;;14.55;7.45;;;5.00;99.90;;;;;;4982767;28;20046;-72
2021/12/08 07:15:31;;;;;;;14.18;8.82;;;5.00;99.90;;;;;;4981424;28;20053;-72
2021/12/08 07:18:02;;;;;;;19.48;10.45;;;5.10;99.90;;;;;;4986422;28;20756;-72
2021/12/08 07:20:45;;;;;;;16.48;10.63;;;5.10;99.90;;;;;;4975555;28;20050;-72
2021/12/08 07:23:38;;;;;;;21.70;9.95;;;5.20;99.90;;;;;;4985864;28;20082;-72
2021/12/08 07:26:14;;;;;;;20.75;12.88;;;5.20;99.90;;;;;;4985907;28;20057;-72
2021/12/08 07:28:41;;;;;;;25.83;13.80;;;5.20;99.90;;;;;;4985279;28;20074;-72
2021/12/08 07:31:15;;;;;;;26.73;14.45;;;5.20;99.90;;;;;;4985815;28;20665;-72
2021/12/08 07:33:42;;;;;;;26.08;13.70;;;5.20;99.90;;;;;;4983479;28;20543;-72
2021/12/08 07:36:15;;;;;;;24.02;13.38;;;5.20;99.90;;;;;;4982948;28;20050;-72
2021/12/08 07:38:43;;;;;;;26.88;16.30;;;5.20;99.90;;;;;;4983558;28;20046;-72
2021/12/08 07:41:24;;;;;;;23.38;12.80;;;5.20;99.90;;;;;;4984819;28;20105;-72
2021/12/08 07:43:53;;;;;;;16.17;9.95;;;5.20;99.90;;;;;;4983838;28;20046;-72
2021/12/08 07:46:26;;;;;;;16.80;9.43;;;5.20;99.90;;;;;;4987557;28;20708;-72
2021/12/08 07:49:10;;;;;;;17.65;9.27;;;5.20;99.90;;;;;;4984170;28;20038;-72
2021/12/08 07:51:42;;;;;;;17.90;10.60;;;5.20;99.90;;;;;;4984247;28;20589;-72
2021/12/08 07:54:09;;;;;;;27.02;14.25;;;5.20;99.90;;;;;;4978351;28;20052;-73
2021/12/08 07:56:37;;;;;;;34.97;16.23;;;5.10;99.90;;;;;;4982485;28;20073;-72
2021/12/08 07:59:06;;;;;;;29.63;15.50;;;5.10;99.90;;;;;;4983588;28;20058;-72
2021/12/08 08:01:36;;;;;;;31.23;14.68;;;5.10;99.90;;;;;;4987085;28;20682;-72
2021/12/08 08:04:05;;;;;;;27.38;15.88;;;5.20;99.90;;;;;;4982500;28;20048;-72
2021/12/08 08:06:35;;;;;;;33.50;15.88;;;5.20;99.90;;;;;;4985290;28;20077;-72
2021/12/08 08:09:03;;;;;;;31.73;15.93;;;5.20;99.90;;;;;;4985349;28;20051;-72
2021/12/08 08:11:32;;;;;;;34.00;17.55;;;5.20;99.90;;;;;;4982195;28;20137;-72
2021/12/08 08:13:58;;;;;;;27.98;14.15;;;5.10;99.90;;;;;;4980032;28;20046;-72
2021/12/08 08:16:29;;;;;;;30.90;13.93;;;5.20;99.90;;;;;;4985319;28;20046;-72
2021/12/08 08:19:05;;;;;;;16.65;8.73;;;5.10;99.90;;;;;;4984260;28;20689;-74
2021/12/08 08:21:34;;;;;;;17.38;8.15;;;5.10;99.90;;;;;;4987494;28;20313;-71
2021/12/08 08:24:01;;;;;;;20.50;10.43;;;5.20;99.90;;;;;;4978683;28;20034;-75
2021/12/08 08:26:28;;;;;;;33.20;17.30;;;5.10;99.90;;;;;;4969671;28;20722;-75
2021/12/08 08:28:54;;;;;;;30.98;15.88;;;5.10;99.90;;;;;;4985901;28;20042;-75
2021/12/08 08:31:27;;;;;;;35.13;15.80;;;5.10;99.90;;;;;;4990326;28;20095;-76
2021/12/08 08:33:54;;;;;;;31.40;16.48;;;5.20;99.90;;;;;;4982332;28;20058;-75
2021/12/08 08:36:23;;;;;;;28.70;13.80;;;5.20;99.90;;;;;;4986493;28;20449;-75
2021/12/08 08:38:55;;;;;;;35.35;16.17;;;5.10;99.90;;;;;;4983918;28;20049;-75
2021/12/08 08:41:28;;;;;;;29.08;14.52;;;5.20;99.90;;;;;;4988475;28;20096;-75
2021/12/08 08:43:58;;;;;;;17.30;9.10;;;5.20;99.90;;;;;;4986120;28;20057;-74
2021/12/08 08:46:29;;;;;;;20.40;10.20;;;5.20;99.90;;;;;;4986493;28;20065;-74
2021/12/08 08:48:59;;;;;;;25.70;11.82;;;5.30;99.90;;;;;;4986213;28;20129;-76
2021/12/08 08:51:35;;;;;;;20.27;8.90;;;5.30;99.90;;;;;;4985456;28;20057;-73
2021/12/08 08:54:06;;;;;;;19.05;9.05;;;5.30;99.90;;;;;;4986536;28;20435;-74
2021/12/08 08:56:36;;;;;;;18.70;8.30;;;5.30;99.90;;;;;;4987245;28;20061;-75
2021/12/08 08:59:17;;;;;;;18.13;7.68;;;5.30;99.90;;;;;;4986833;28;20516;-75
2021/12/08 09:01:47;;;;;;;15.48;5.88;;;5.40;99.90;;;;;;4988282;28;20038;-72
2021/12/08 09:04:15;;;;;;;13.40;4.80;;;5.40;99.90;;;;;;4988693;28;20050;-76
2021/12/08 09:06:44;;;;;;;11.77;3.80;;;5.40;99.90;;;;;;4984619;28;20082;-76
2021/12/08 09:09:17;;;;;;;8.57;3.70;;;5.40;99.90;;;;;;4987153;28;20391;-77
2021/12/08 09:11:53;;;;;;;11.07;3.78;;;5.50;99.90;;;;;;4987626;28;20696;-76
2021/12/08 09:14:27;;;;;;;13.45;4.60;;;5.50;99.90;;;;;;4979435;28;20062;-76
2021/12/08 09:16:54;;;;;;;12.63;3.55;;;5.60;99.90;;;;;;4974946;28;20068;-75
2021/12/08 09:19:30;;;;;;;18.40;6.80;;;5.60;99.90;;;;;;4986329;28;20116;-74
2021/12/08 09:22:01;;;;;;;14.45;5.35;;;5.70;99.90;;;;;;4986828;28;20049;-75
2021/12/08 09:24:38;;;;;;;16.55;6.95;;;5.80;99.90;;;;;;4985673;28;20129;-72
2021/12/08 09:27:08;;;;;;;17.17;7.03;;;5.80;99.90;;;;;;4987280;28;20078;-77
2021/12/08 09:29:43;;;;;;;15.43;6.40;;;5.90;99.90;;;;;;4983320;28;20042;-75
2021/12/08 09:32:34;;;;;;;15.63;6.55;;;5.90;99.90;;;;;;4983546;28;20057;-75
2021/12/08 09:35:14;;;;;;;12.77;5.38;;;6.00;99.90;;;;;;4985735;28;20046;-74
2021/12/08 09:37:49;;;;;;;17.60;5.25;;;6.00;99.90;;;;;;4990378;28;20177;-75
2021/12/08 09:40:29;;;;;;;12.20;4.10;;;6.00;99.90;;;;;;4989882;28;20054;-75
2021/12/08 09:43:03;;;;;;;15.35;5.80;;;6.00;99.90;;;;;;4988372;28;20047;-74
2021/12/08 09:45:41;;;;;;;15.15;7.20;;;6.00;99.90;;;;;;4989703;28;20397;-75
2021/12/08 09:48:08;;;;;;;16.27;6.93;;;6.10;99.90;;;;;;4988740;28;20081;-74
2021/12/08 09:50:36;;;;;;;15.43;5.97;;;6.00;99.90;;;;;;4987572;28;20050;-74
2021/12/08 09:53:03;;;;;;;13.48;4.93;;;6.00;99.90;;;;;;4989250;28;20405;-74
2021/12/08 09:55:29;;;;;;;16.15;7.07;;;6.00;99.90;;;;;;4991217;28;20816;-72
2021/12/08 09:57:54;;;;;;;16.10;7.70;;;6.10;99.90;;;;;;4985685;28;20128;-73
2021/12/08 10:00:42;;;;;;;14.55;4.65;;;6.10;99.90;;;;;;4982044;28;20069;-72
2021/12/08 10:03:09;;;;;;;15.20;5.63;;;6.10;99.90;;;;;;4990108;28;20085;-72
2021/12/08 10:05:37;;;;;;;17.83;8.88;;;6.10;99.90;;;;;;4989222;28;20086;-72
2021/12/08 10:08:04;;;;;;;13.60;4.53;;;6.10;99.90;;;;;;4990339;28;20049;-72
2021/12/08 10:10:30;;;;;;;10.20;2.97;;;6.10;99.90;;;;;;4989720;28;20465;-72
2021/12/08 10:12:57;;;;;;;11.25;3.30;;;6.20;99.90;;;;;;4989277;28;20500;-72
2021/12/08 10:15:24;;;;;;;12.68;3.20;;;6.30;99.90;;;;;;4990268;28;20039;-72
2021/12/08 10:17:51;;;;;;;9.93;3.40;;;6.30;99.90;;;;;;4988812;28;20041;-72
2021/12/08 10:20:31;;;;;;;10.98;3.13;;;6.30;99.90;;;;;;4990575;28;20386;-72
2021/12/08 10:23:17;;;;;;;15.10;3.40;;;6.40;99.90;;;;;;4988533;28;20050;-73
2021/12/08 10:25:55;;;;;;;12.48;4.63;;;6.40;99.90;;;;;;4985959;28;20456;-72
2021/12/08 10:28:38;;;;;;;11.48;3.72;;;6.40;99.90;;;;;;4986604;28;20053;-72
2021/12/08 10:31:14;;;;;;;13.00;5.35;;;6.40;99.90;;;;;;4979366;28;20053;-72
2021/12/08 10:34:03;;;;;;;14.73;5.57;;;6.50;99.90;;;;;;4989554;28;20492;-72
2021/12/08 10:36:51;;;;;;;15.70;5.50;;;6.40;99.90;;;;;;4978530;28;20042;-72
2021/12/08 10:39:41;;;;;;;13.48;4.90;;;6.50;99.90;;;;;;4989677;28;20517;-73
2021/12/08 10:42:09;;;;;;;11.40;4.00;;;6.50;99.90;;;;;;4985552;28;20042;-72
2021/12/08 10:44:49;;;;;;;14.50;4.65;;;6.40;99.90;;;;;;4987726;28;20050;-74
2021/12/08 10:47:28;;;;;;;11.52;3.72;;;6.40;99.90;;;;;;4986475;28;20034;-72
2021/12/08 10:55:30;;;;;;;13.63;4.88;;;6.40;99.90;;;;;;4986766;28;20054;-74
2021/12/08 10:57:56;;;;;;;11.43;4.13;;;6.40;99.90;;;;;;4985934;28;20042;-73
2021/12/08 11:00:32;;;;;;;10.20;4.55;;;6.40;99.90;;;;;;4988492;28;20409;-72
2021/12/08 11:03:07;;;;;;;12.50;4.25;;;6.40;99.90;;;;;;4989483;28;20207;-73
2021/12/08 11:05:43;;;;;;;13.90;4.47;;;6.50;99.90;;;;;;4987642;28;20503;-73
2021/12/08 11:08:14;;;;;;;14.65;4.93;;;6.50;99.90;;;;;;4981573;28;20464;-72
2021/12/08 11:10:45;;;;;;;12.15;5.18;;;6.50;99.90;;;;;;4989834;28;20054;-73
2021/12/08 11:13:13;;;;;;;13.18;5.00;;;6.50;99.80;;;;;;4987533;28;20069;-73
2021/12/08 11:15:40;;;;;;;13.55;5.97;;;6.50;99.90;;;;;;4989056;28;20046;-73
2021/12/08 11:18:21;;;;;;;19.77;7.63;;;6.50;99.90;;;;;;4986476;28;20041;-77
2021/12/08 11:20:54;;;;;;;16.95;6.15;;;6.50;99.80;;;;;;4988103;28;20046;-76
2021/12/08 11:23:39;;;;;;;16.67;5.80;;;6.50;99.70;;;;;;4987635;28;20134;-75
2021/12/08 11:26:12;;;;;;;17.23;6.60;;;6.50;99.70;;;;;;4988331;28;20725;-74
2021/12/08 11:28:38;;;;;;;14.75;5.28;;;6.60;99.70;;;;;;4988856;28;20050;-76
2021/12/08 11:31:09;;;;;;;12.50;4.90;;;6.60;99.50;;;;;;4986531;28;20078;-76
2021/12/08 11:33:41;;;;;;;12.85;4.13;;;6.50;99.20;;;;;;4986264;28;20512;-75
2021/12/08 11:36:19;;;;;;;8.88;3.97;;;6.60;99.10;;;;;;4987394;28;20050;-76
2021/12/08 11:38:48;;;;;;;10.55;3.75;;;6.50;98.90;;;;;;4986221;28;20101;-75
2021/12/08 11:41:29;;;;;;;12.55;5.15;;;6.50;99.00;;;;;;4988190;28;20061;-74
2021/12/08 11:43:56;;;;;;;15.73;6.20;;;6.50;98.90;;;;;;4991900;28;20096;-75
2021/12/08 11:46:23;;;;;;;16.70;6.70;;;6.50;99.00;;;;;;4988003;28;20617;-74
2021/12/08 11:49:08;;;;;;;14.75;5.53;;;6.50;99.00;;;;;;4986788;28;20046;-73
2021/12/08 11:52:10;;;;;;;16.23;7.65;;;6.60;98.90;;;;;;4986487;28;20068;-73
2021/12/08 11:54:56;;;;;;;17.48;8.80;;;6.60;98.90;;;;;;4986149;28;20042;-73
2021/12/08 11:57:33;;;;;;;17.42;5.88;;;6.60;99.00;;;;;;4987871;28;20050;-74
2021/12/08 12:00:19;;;;;;;18.83;8.13;;;6.60;99.00;;;;;;4984571;28;20050;-72
2021/12/08 12:02:55;;;;;;;21.67;12.30;;;6.60;98.80;;;;;;4967107;28;20565;-73
2021/12/08 12:05:43;;;;;;;12.63;6.13;;;6.60;98.80;;;;;;4982860;28;20078;-71
2021/12/08 12:08:17;;;;;;;10.18;3.97;;;6.60;98.40;;;;;;5000768;28;20054;-74
2021/12/08 12:10:53;;;;;;;9.60;4.03;;;6.60;98.20;;;;;;4984614;28;20161;-76
2021/12/08 12:13:19;;;;;;;14.43;5.50;;;6.50;98.20;;;;;;4986859;28;20121;-72
2021/12/08 12:15:47;;;;;;;14.88;7.82;;;6.50;98.20;;;;;;4985303;28;20184;-75
2021/12/08 12:18:15;;;;;;;18.05;9.80;;;6.50;98.20;;;;;;4989261;28;20058;-76
2021/12/08 12:20:44;;;;;;;15.10;6.80;;;6.50;98.20;;;;;;4985912;28;20495;-75
2021/12/08 12:23:46;;;;;;;14.75;7.97;;;6.50;98.20;;;;;;4987393;28;20038;-76
2021/12/08 12:26:34;;;;;;;17.10;8.35;;;6.60;98.30;;;;;;4984030;28;20065;-82
2021/12/08 12:29:23;;;;;;;15.32;6.03;;;6.60;98.30;;;;;;4987702;28;20050;-75
2021/12/08 12:31:54;;;;;;;18.30;7.13;;;6.60;98.10;;;;;;4986608;28;20112;-75
2021/12/08 12:34:24;;;;;;;14.23;5.60;;;6.60;98.10;;;;;;4987859;28;20052;-76
2021/12/08 12:36:50;;;;;;;14.93;7.32;;;6.60;98.00;;;;;;4992367;28;20085;-76
2021/12/08 12:39:23;;;;;;;15.98;6.63;;;6.60;97.90;;;;;;4988089;28;20049;-75
2021/12/08 12:41:59;;;;;;;14.57;5.47;;;6.60;97.90;;;;;;4987307;28;20069;-72
2021/12/08 12:44:31;;;;;;;15.15;5.60;;;6.60;97.90;;;;;;4987828;28;20178;-72
2021/12/08 12:47:09;;;;;;;16.13;7.18;;;6.60;97.90;;;;;;4986531;28;20133;-75
2021/12/08 12:49:44;;;;;;;22.80;10.77;;;6.60;97.90;;;;;;4986653;28;20060;-76
2021/12/08 12:52:12;;;;;;;23.80;10.63;;;6.70;98.00;;;;;;4993917;28;20100;-76
2021/12/08 12:54:39;;;;;;;14.70;7.45;;;6.70;98.00;;;;;;4989020;28;20151;-75
2021/12/08 12:57:07;;;;;;;15.35;7.03;;;6.70;97.80;;;;;;4987432;28;20046;-73
2021/12/08 12:59:51;;;;;;;8.57;4.47;;;6.70;97.90;;;;;;4986715;28;20035;-77
2021/12/08 13:02:32;;;;;;;7.70;2.92;;;6.70;97.70;;;;;;4984681;28;20046;-75
2021/12/08 13:05:10;;;;;;;10.85;3.00;;;6.70;97.60;;;;;;4986890;28;20070;-74
2021/12/08 13:07:42;;;;;;;10.95;3.03;;;6.70;97.60;;;;;;4985033;28;20130;-75
2021/12/08 13:10:14;;;;;;;10.38;4.40;;;6.70;97.50;;;;;;4986901;28;20057;-76
2021/12/08 13:12:42;;;;;;;14.98;5.93;;;6.70;97.40;;;;;;4988243;28;20046;-76
2021/12/08 13:15:11;;;;;;;17.90;7.55;;;6.70;97.30;;;;;;4990278;28;20049;-76
2021/12/08 13:17:38;;;;;;;11.85;4.28;;;6.70;97.30;;;;;;4989031;28;20050;-73
2021/12/08 13:20:09;;;;;;;8.60;2.90;;;6.70;97.20;;;;;;4988578;28;20540;-73
2021/12/08 13:22:55;;;;;;;10.85;4.40;;;6.70;97.20;;;;;;4990960;28;20097;-76
2021/12/08 13:25:48;;;;;;;16.33;8.38;;;6.70;97.20;;;;;;4987974;28;20050;-76
2021/12/08 13:28:32;;;;;;;17.10;6.05;;;6.70;97.10;;;;;;4989778;28;20089;-74
2021/12/08 13:31:20;;;;;;;9.07;3.88;;;6.70;97.20;;;;;;4988366;28;20102;-77
2021/12/08 13:33:51;;;;;;;15.77;7.75;;;6.70;97.00;;;;;;4991902;28;20109;-73
2021/12/08 13:36:20;;;;;;;19.17;7.80;;;6.70;97.20;;;;;;4991537;28;20077;-73
2021/12/08 13:38:58;;;;;;;13.52;5.65;;;6.70;97.30;;;;;;4990516;28;20062;-76
2021/12/08 13:41:29;;;;;;;9.57;3.60;;;6.70;97.20;;;;;;4987459;28;20408;-75
2021/12/08 13:43:56;;;;;;;9.93;3.20;;;6.70;97.20;;;;;;4989626;28;20048;-75
2021/12/08 13:46:36;;;;;;;9.30;3.65;;;6.70;97.20;;;;;;4989737;28;20046;-73
2021/12/08 13:49:20;;;;;;;10.82;3.88;;;6.70;97.10;;;;;;4987995;28;20150;-74